createdAt,value
2023-04-28T00:00:17.445Z,0
2023-04-28T00:00:47.711Z,0
2023-04-28T00:01:17.857Z,0
2023-04-28T00:01:40.565Z,0
2023-04-28T00:02:03.503Z,.32
2023-04-28T00:02:38.707Z,0
2023-04-28T00:03:10.137Z,0
2023-04-28T00:03:41.948Z,1.12
2023-04-28T00:04:12.339Z,0
2023-04-28T00:04:46.077Z,.64
2023-04-28T00:05:17.739Z,0
2023-04-28T00:05:40.508Z,0
2023-04-28T00:06:03.045Z,0
2023-04-28T00:06:37.644Z,0
2023-04-28T00:07:09.640Z,0
2023-04-28T00:07:41.933Z,0
2023-04-28T00:08:12.217Z,1.12
2023-04-28T00:08:45.822Z,.64
2023-04-28T00:09:18.339Z,.32
2023-04-28T00:09:41.076Z,1.12
2023-04-28T00:10:03.458Z,0
2023-04-28T00:10:37.787Z,0
2023-04-28T00:11:09.814Z,0
2023-04-28T00:11:41.743Z,0
2023-04-28T00:12:12.034Z,0
2023-04-28T00:12:47.230Z,0
2023-04-28T00:13:17.885Z,.32
2023-04-28T00:13:40.313Z,0
2023-04-28T00:14:03.120Z,0
2023-04-28T00:14:38.170Z,0
2023-04-28T00:15:09.962Z,0
2023-04-28T00:15:41.979Z,0
2023-04-28T00:16:12.068Z,1.12
2023-04-28T00:16:46.727Z,.32
2023-04-28T00:17:18.370Z,0
2023-04-28T00:17:41.198Z,0
2023-04-28T00:18:03.797Z,0
2023-04-28T00:18:38.174Z,0
2023-04-28T00:19:11.488Z,0
2023-04-28T00:19:42.035Z,0
2023-04-28T00:20:12.494Z,0
2023-04-28T00:20:46.301Z,0
2023-04-28T00:21:18.031Z,.32
2023-04-28T00:21:40.516Z,0
2023-04-28T00:22:03.198Z,1.44
2023-04-28T00:22:38.810Z,.32
2023-04-28T00:23:11.415Z,0
2023-04-28T00:23:42.315Z,0
2023-04-28T00:24:12.109Z,0
2023-04-28T00:24:45.683Z,0
2023-04-28T00:25:17.552Z,0
2023-04-28T00:25:40.694Z,0
2023-04-28T00:26:02.727Z,1.44
2023-04-28T00:26:38.652Z,.32
2023-04-28T00:27:09.665Z,0
2023-04-28T00:27:46.640Z,0
2023-04-28T00:28:09.259Z,0
2023-04-28T00:28:47.426Z,1.12
2023-04-28T00:29:21.071Z,0
2023-04-28T00:29:40.538Z,0
2023-04-28T00:30:03.405Z,0
2023-04-28T00:30:39.095Z,.32
2023-04-28T00:31:10.046Z,1.12
2023-04-28T00:31:41.724Z,0
2023-04-28T00:32:12.009Z,1.12
2023-04-28T00:32:45.576Z,1.12
2023-04-28T00:33:21.130Z,0
2023-04-28T00:33:41.053Z,0
2023-04-28T00:34:03.720Z,.32
2023-04-28T00:34:40.155Z,.64
2023-04-28T00:35:09.551Z,0
2023-04-28T00:35:41.770Z,1.44
2023-04-28T00:36:12.111Z,.32
2023-04-28T00:36:45.963Z,1.12
2023-04-28T00:37:17.492Z,0
2023-04-28T00:37:40.684Z,0
2023-04-28T00:38:02.973Z,0
2023-04-28T00:38:40.201Z,0
2023-04-28T00:39:09.711Z,0
2023-04-28T00:39:41.625Z,1.12
2023-04-28T00:40:17.373Z,0
2023-04-28T00:40:45.665Z,0
2023-04-28T00:41:17.718Z,.64
2023-04-28T00:41:44.266Z,.32
2023-04-28T00:42:21.605Z,1.12
2023-04-28T00:42:44.372Z,.32
2023-04-28T00:43:07.131Z,1.12
2023-04-28T00:43:41.675Z,0
2023-04-28T00:44:11.916Z,1.44
2023-04-28T00:44:45.722Z,1.12
2023-04-28T00:45:17.741Z,.64
2023-04-28T00:45:40.926Z,0
2023-04-28T00:46:02.714Z,0
2023-04-28T00:46:37.714Z,1.12
2023-04-28T00:47:09.794Z,.64
2023-04-28T00:47:41.572Z,.32
2023-04-28T00:48:11.917Z,1.12
2023-04-28T00:48:45.812Z,.32
2023-04-28T00:49:17.613Z,.64
2023-04-28T00:49:41.345Z,0
2023-04-28T00:50:05.360Z,2.09
2023-04-28T00:50:37.571Z,.32
2023-04-28T00:51:09.723Z,2.09
2023-04-28T00:51:41.768Z,.32
2023-04-28T00:52:13.629Z,.32
2023-04-28T00:52:45.914Z,.64
2023-04-28T00:53:17.548Z,1.12
2023-04-28T00:53:43.134Z,.64
2023-04-28T00:54:02.942Z,1.12
2023-04-28T00:54:37.880Z,.64
2023-04-28T00:55:09.558Z,1.77
2023-04-28T00:55:35.665Z,.32
2023-04-28T00:56:12.423Z,1.12
2023-04-28T00:56:45.781Z,.32
2023-04-28T00:57:19.133Z,.32
2023-04-28T00:57:42.348Z,0
2023-04-28T00:58:02.983Z,1.12
2023-04-28T00:58:37.934Z,0
2023-04-28T00:59:10.208Z,.32
2023-04-28T00:59:43.100Z,0
2023-04-28T01:00:12.380Z,.32
2023-04-28T01:00:46.033Z,0
2023-04-28T01:01:17.686Z,.64
2023-04-28T01:01:40.455Z,.32
2023-04-28T01:02:02.960Z,1.44
2023-04-28T01:02:38.213Z,0
2023-04-28T01:03:10.146Z,.32
2023-04-28T01:03:43.880Z,.32
2023-04-28T01:04:12.075Z,.32
2023-04-28T01:04:46.535Z,.32
2023-04-28T01:05:18.144Z,0
2023-04-28T01:05:40.477Z,0
2023-04-28T01:06:03.758Z,.32
2023-04-28T01:06:37.989Z,0
2023-04-28T01:07:09.640Z,0
2023-04-28T01:07:44.078Z,1.12
2023-04-28T01:08:12.893Z,0
2023-04-28T01:08:45.574Z,.32
2023-04-28T01:09:17.588Z,0
2023-04-28T01:09:40.425Z,0
2023-04-28T01:10:02.677Z,0
2023-04-28T01:10:38.274Z,0
2023-04-28T01:11:09.599Z,0
2023-04-28T01:11:44.026Z,0
2023-04-28T01:12:11.915Z,1.12
2023-04-28T01:12:45.760Z,0
2023-04-28T01:13:18.105Z,0
2023-04-28T01:13:42.103Z,0
2023-04-28T01:14:04.144Z,0
2023-04-28T01:14:38.234Z,0
2023-04-28T01:15:10.178Z,0
2023-04-28T01:15:42.088Z,0
2023-04-28T01:16:12.566Z,0
2023-04-28T01:16:45.845Z,0
2023-04-28T01:17:18.324Z,0
2023-04-28T01:17:41.003Z,0
2023-04-28T01:18:07.313Z,0
2023-04-28T01:18:38.972Z,.32
2023-04-28T01:19:10.408Z,0
2023-04-28T01:19:42.690Z,1.77
2023-04-28T01:20:12.519Z,.64
2023-04-28T01:20:45.972Z,0
2023-04-28T01:21:18.115Z,0
2023-04-28T01:21:40.625Z,0
2023-04-28T01:22:03.653Z,0
2023-04-28T01:22:37.519Z,.64
2023-04-28T01:23:09.817Z,0
2023-04-28T01:23:41.799Z,0
2023-04-28T01:24:12.542Z,0
2023-04-28T01:24:46.964Z,.64
2023-04-28T01:25:17.667Z,.32
2023-04-28T01:25:40.409Z,0
2023-04-28T01:26:02.824Z,0
2023-04-28T01:26:37.941Z,.64
2023-04-28T01:27:09.988Z,0
2023-04-28T01:27:41.607Z,0
2023-04-28T01:28:13.663Z,0
2023-04-28T01:28:46.704Z,.32
2023-04-28T01:29:18.138Z,1.77
2023-04-28T01:29:40.954Z,.64
2023-04-28T01:30:04.273Z,1.12
2023-04-28T01:30:38.224Z,2.09
2023-04-28T01:31:10.978Z,0
2023-04-28T01:31:41.623Z,1.12
2023-04-28T01:32:12.591Z,.32
2023-04-28T01:32:47.037Z,1.44
2023-04-28T01:33:17.953Z,1.12
2023-04-28T01:33:40.433Z,.32
2023-04-28T01:34:03.180Z,.64
2023-04-28T01:34:39.794Z,0
2023-04-28T01:35:13.447Z,2.09
2023-04-28T01:35:42.012Z,1.12
2023-04-28T01:36:12.060Z,1.12
2023-04-28T01:36:47.366Z,.32
2023-04-28T01:37:17.853Z,0
2023-04-28T01:37:40.299Z,0
2023-04-28T01:38:02.861Z,0
2023-04-28T01:38:38.966Z,0
2023-04-28T01:39:12.201Z,0
2023-04-28T01:39:41.886Z,0
2023-04-28T01:40:12.481Z,0
2023-04-28T01:40:47.933Z,.32
2023-04-28T01:41:17.764Z,.32
2023-04-28T01:41:40.973Z,0
2023-04-28T01:42:02.741Z,0
2023-04-28T01:42:37.838Z,.32
2023-04-28T01:43:10.261Z,0
2023-04-28T01:43:42.177Z,0
2023-04-28T01:44:12.029Z,.32
2023-04-28T01:44:45.748Z,0
2023-04-28T01:45:17.579Z,0
2023-04-28T01:45:40.271Z,0
2023-04-28T01:46:02.879Z,.32
2023-04-28T01:46:38.031Z,0
2023-04-28T01:47:10.435Z,.32
2023-04-28T01:47:41.717Z,0
2023-04-28T01:48:12.157Z,0
2023-04-28T01:48:46.315Z,.32
2023-04-28T01:49:17.639Z,.64
2023-04-28T01:49:40.410Z,0
2023-04-28T01:50:02.840Z,1.77
2023-04-28T01:50:38.749Z,0
2023-04-28T01:51:10.126Z,.64
2023-04-28T01:51:42.265Z,1.12
2023-04-28T01:52:12.655Z,.32
2023-04-28T01:52:46.603Z,1.77
2023-04-28T01:53:17.787Z,1.77
2023-04-28T01:53:40.508Z,1.77
2023-04-28T01:54:03.859Z,1.12
2023-04-28T01:54:37.890Z,1.12
2023-04-28T01:55:09.696Z,2.09
2023-04-28T01:55:41.696Z,1.77
2023-04-28T01:56:15.726Z,2.57
2023-04-28T01:56:45.996Z,1.77
2023-04-28T01:57:18.450Z,1.44
2023-04-28T01:57:40.582Z,1.12
2023-04-28T01:58:04.097Z,.32
2023-04-28T01:58:38.063Z,.64
2023-04-28T01:59:11.036Z,1.44
2023-04-28T01:59:41.991Z,1.12
2023-04-28T02:00:12.435Z,2.09
2023-04-28T02:00:47.252Z,1.12
2023-04-28T02:01:24.549Z,1.12
2023-04-28T02:01:46.972Z,1.44
2023-04-28T02:02:47.940Z,1.44
2023-04-28T02:03:06.935Z,1.12
2023-04-28T02:03:41.769Z,1.44
2023-04-28T02:04:11.914Z,1.44
2023-04-28T02:04:45.600Z,1.44
2023-04-28T02:05:17.570Z,1.12
2023-04-28T02:05:40.581Z,2.09
2023-04-28T02:06:02.896Z,1.12
2023-04-28T02:06:37.438Z,2.09
2023-04-28T02:07:09.623Z,0
2023-04-28T02:07:41.586Z,1.12
2023-04-28T02:08:12.079Z,3.21
2023-04-28T02:08:45.549Z,2.09
2023-04-28T02:09:17.701Z,.32
2023-04-28T02:09:40.546Z,1.44
2023-04-28T02:10:03.003Z,.64
2023-04-28T02:10:37.575Z,1.12
2023-04-28T02:11:09.596Z,1.44
2023-04-28T02:11:41.580Z,1.44
2023-04-28T02:12:12.345Z,.32
2023-04-28T02:12:45.659Z,1.12
2023-04-28T02:13:22.961Z,2.09
2023-04-28T02:13:44.779Z,1.44
2023-04-28T02:14:03.907Z,.32
2023-04-28T02:14:37.705Z,1.44
2023-04-28T02:15:04.289Z,.32
2023-04-28T02:15:41.809Z,2.09
2023-04-28T02:16:12.668Z,0
2023-04-28T02:16:45.562Z,1.44
2023-04-28T02:17:18.193Z,1.77
2023-04-28T02:17:40.776Z,1.12
2023-04-28T02:18:03.278Z,2.89
2023-04-28T02:18:38.681Z,2.09
2023-04-28T02:19:09.636Z,1.44
2023-04-28T02:19:44.652Z,.64
2023-04-28T02:20:31.820Z,1.44
2023-04-28T02:20:53.920Z,.32
2023-04-28T02:21:14.821Z,1.12
2023-04-28T02:21:49.812Z,1.12
2023-04-28T02:22:21.650Z,1.12
2023-04-28T02:22:44.430Z,1.12
2023-04-28T02:23:06.969Z,.32
2023-04-28T02:23:42.243Z,1.77
2023-04-28T02:24:12.089Z,3.54
2023-04-28T02:24:45.924Z,2.09
2023-04-28T02:25:17.960Z,1.44
2023-04-28T02:25:40.659Z,1.77
2023-04-28T02:26:03.066Z,2.09
2023-04-28T02:26:37.623Z,1.12
2023-04-28T02:27:09.765Z,1.77
2023-04-28T02:27:41.801Z,2.89
2023-04-28T02:28:18.807Z,1.77
2023-04-28T02:28:41.223Z,3.21
2023-04-28T02:29:12.509Z,2.57
2023-04-28T02:29:46.104Z,1.77
2023-04-28T02:30:23.669Z,2.09
2023-04-28T02:30:55.476Z,1.12
2023-04-28T02:31:25.748Z,2.09
2023-04-28T02:31:48.403Z,2.09
2023-04-28T02:32:14.085Z,2.57
2023-04-28T02:32:46.698Z,2.09
2023-04-28T02:33:19.058Z,1.44
2023-04-28T02:33:41.515Z,2.09
2023-04-28T02:34:04.331Z,2.09
2023-04-28T02:34:37.877Z,1.12
2023-04-28T02:35:10.351Z,1.44
2023-04-28T02:35:41.997Z,1.77
2023-04-28T02:36:12.367Z,2.09
2023-04-28T02:36:45.822Z,2.57
2023-04-28T02:37:17.773Z,.32
2023-04-28T02:37:40.558Z,.64
2023-04-28T02:38:02.952Z,1.77
2023-04-28T02:38:38.188Z,.32
2023-04-28T02:39:09.933Z,1.12
2023-04-28T02:39:48.465Z,1.77
2023-04-28T02:40:10.793Z,3.21
2023-04-28T02:40:45.587Z,1.12
2023-04-28T02:41:17.713Z,.64
2023-04-28T02:41:40.884Z,2.57
2023-04-28T02:42:03.297Z,1.77
2023-04-28T02:42:37.460Z,2.09
2023-04-28T02:43:09.971Z,2.09
2023-04-28T02:43:41.632Z,1.44
2023-04-28T02:44:11.883Z,2.09
2023-04-28T02:44:45.503Z,4.02
2023-04-28T02:45:17.671Z,2.89
2023-04-28T02:45:40.838Z,2.09
2023-04-28T02:46:03.087Z,2.09
2023-04-28T02:46:37.568Z,5.47
2023-04-28T02:47:09.535Z,4.02
2023-04-28T02:47:41.521Z,3.54
2023-04-28T02:48:11.892Z,2.57
2023-04-28T02:48:48.896Z,4.34
2023-04-28T02:49:17.531Z,3.54
2023-04-28T02:49:40.816Z,5.47
2023-04-28T02:50:03.293Z,4.66
2023-04-28T02:50:37.573Z,2.89
2023-04-28T02:51:09.461Z,3.21
2023-04-28T02:51:41.745Z,4.66
2023-04-28T02:52:12.362Z,2.89
2023-04-28T02:52:47.089Z,3.54
2023-04-28T02:53:18.005Z,2.09
2023-04-28T02:53:40.961Z,1.12
2023-04-28T02:54:03.878Z,1.12
2023-04-28T02:54:37.545Z,4.02
2023-04-28T02:55:09.820Z,1.44
2023-04-28T02:55:44.912Z,4.02
2023-04-28T02:56:11.895Z,3.54
2023-04-28T02:56:45.425Z,2.09
2023-04-28T02:57:17.684Z,2.57
2023-04-28T02:57:40.141Z,3.54
2023-04-28T02:58:02.762Z,3.21
2023-04-28T02:58:37.568Z,2.57
2023-04-28T02:59:09.751Z,1.44
2023-04-28T02:59:41.363Z,.64
2023-04-28T03:00:12.159Z,2.89
2023-04-28T03:00:41.202Z,1.44
2023-04-28T03:01:12.165Z,2.09
2023-04-28T03:01:43.891Z,2.89
2023-04-28T03:02:21.791Z,1.44
2023-04-28T03:02:44.836Z,1.12
2023-04-28T03:03:07.157Z,1.12
2023-04-28T03:03:41.634Z,4.34
2023-04-28T03:04:12.083Z,2.89
2023-04-28T03:04:45.708Z,2.09
2023-04-28T03:05:17.625Z,2.09
2023-04-28T03:05:40.400Z,4.02
2023-04-28T03:06:02.802Z,1.77
2023-04-28T03:06:37.535Z,2.89
2023-04-28T03:07:09.510Z,4.66
2023-04-28T03:07:41.504Z,3.21
2023-04-28T03:08:12.032Z,2.09
2023-04-28T03:08:45.757Z,2.89
2023-04-28T03:09:17.564Z,2.89
2023-04-28T03:09:42.258Z,2.09
2023-04-28T03:10:03.041Z,1.44
2023-04-28T03:10:37.502Z,2.89
2023-04-28T03:11:09.835Z,2.89
2023-04-28T03:11:41.696Z,2.09
2023-04-28T03:12:11.900Z,3.54
2023-04-28T03:12:45.509Z,1.44
2023-04-28T03:13:19.030Z,3.21
2023-04-28T03:13:42.272Z,1.12
2023-04-28T03:14:04.473Z,2.89
2023-04-28T03:14:38.007Z,2.09
2023-04-28T03:15:10.367Z,2.09
2023-04-28T03:15:41.780Z,1.12
2023-04-28T03:16:11.911Z,0
2023-04-28T03:16:45.559Z,.32
2023-04-28T03:17:17.468Z,1.12
2023-04-28T03:17:44.043Z,1.12
2023-04-28T03:18:21.543Z,1.12
2023-04-28T03:18:44.557Z,1.77
2023-04-28T03:19:07.034Z,4.02
2023-04-28T03:19:41.412Z,2.09
2023-04-28T03:20:11.902Z,2.09
2023-04-28T03:20:45.407Z,2.09
2023-04-28T03:21:17.385Z,1.12
2023-04-28T03:21:40.296Z,.32
2023-04-28T03:22:04.037Z,2.09
2023-04-28T03:22:37.681Z,2.89
2023-04-28T03:23:09.387Z,.64
2023-04-28T03:23:41.481Z,4.66
2023-04-28T03:24:12.112Z,1.12
2023-04-28T03:24:45.566Z,1.12
2023-04-28T03:25:17.339Z,.64
2023-04-28T03:25:40.519Z,1.44
2023-04-28T03:26:07.142Z,.32
2023-04-28T03:26:37.491Z,1.44
2023-04-28T03:27:09.492Z,2.09
2023-04-28T03:27:41.375Z,1.77
2023-04-28T03:28:13.653Z,2.09
2023-04-28T03:28:45.868Z,2.09
2023-04-28T03:29:17.750Z,2.09
2023-04-28T03:29:41.492Z,1.44
2023-04-28T03:30:05.694Z,.32
2023-04-28T03:30:37.508Z,1.44
2023-04-28T03:31:09.741Z,1.12
2023-04-28T03:31:41.568Z,0
2023-04-28T03:32:12.149Z,2.09
2023-04-28T03:32:45.439Z,.64
2023-04-28T03:33:18.020Z,2.09
2023-04-28T03:33:41.069Z,.64
2023-04-28T03:34:03.120Z,1.44
2023-04-28T03:34:40.920Z,.32
2023-04-28T03:35:09.408Z,2.09
2023-04-28T03:35:42.042Z,1.44
2023-04-28T03:36:11.942Z,2.09
2023-04-28T03:36:45.720Z,1.12
2023-04-28T03:37:17.328Z,1.77
2023-04-28T03:37:40.120Z,1.44
2023-04-28T03:38:02.452Z,2.89
2023-04-28T03:38:37.566Z,1.44
2023-04-28T03:39:09.719Z,2.57
2023-04-28T03:39:41.427Z,2.89
2023-04-28T03:40:12.006Z,1.77
2023-04-28T03:40:45.341Z,1.44
2023-04-28T03:41:17.604Z,2.09
2023-04-28T03:41:40.940Z,2.09
2023-04-28T03:42:03.168Z,2.57
2023-04-28T03:42:37.357Z,3.54
2023-04-28T03:43:09.947Z,1.44
2023-04-28T03:43:41.858Z,1.44
2023-04-28T03:44:11.992Z,1.12
2023-04-28T03:44:45.476Z,2.09
2023-04-28T03:45:17.705Z,1.44
2023-04-28T03:45:40.473Z,1.77
2023-04-28T03:46:02.863Z,1.12
2023-04-28T03:46:37.320Z,1.77
2023-04-28T03:47:09.365Z,0
2023-04-28T03:47:41.541Z,2.57
2023-04-28T03:48:11.914Z,1.77
2023-04-28T03:48:45.320Z,.32
2023-04-28T03:49:17.457Z,0
2023-04-28T03:49:40.396Z,.32
2023-04-28T03:50:03.141Z,1.77
2023-04-28T03:50:37.643Z,1.12
2023-04-28T03:51:09.329Z,2.57
2023-04-28T03:51:41.561Z,0
2023-04-28T03:52:13.417Z,.32
2023-04-28T03:52:45.577Z,1.44
2023-04-28T03:53:17.635Z,1.77
2023-04-28T03:53:41.186Z,1.12
2023-04-28T03:54:03.400Z,0
2023-04-28T03:54:37.495Z,1.44
2023-04-28T03:55:10.816Z,1.44
2023-04-28T03:55:41.510Z,0
2023-04-28T03:56:12.115Z,.64
2023-04-28T03:56:47.391Z,0
2023-04-28T03:57:18.966Z,1.12
2023-04-28T03:57:41.007Z,.32
2023-04-28T03:58:03.301Z,1.77
2023-04-28T03:58:37.462Z,.32
2023-04-28T03:59:10.364Z,.32
2023-04-28T03:59:42.022Z,.64
2023-04-28T04:00:15.181Z,0
2023-04-28T04:00:45.503Z,1.44
2023-04-28T04:01:17.501Z,0
2023-04-28T04:01:40.614Z,.32
2023-04-28T04:02:07.499Z,.32
2023-04-28T04:02:40.245Z,0
2023-04-28T04:03:10.867Z,1.44
2023-04-28T04:03:41.754Z,.32
2023-04-28T04:04:12.377Z,1.12
2023-04-28T04:04:45.634Z,1.44
2023-04-28T04:05:17.474Z,.32
2023-04-28T04:05:40.498Z,0
2023-04-28T04:06:03.020Z,.32
2023-04-28T04:06:37.461Z,0
2023-04-28T04:07:10.948Z,.32
2023-04-28T04:07:41.964Z,0
2023-04-28T04:08:11.922Z,0
2023-04-28T04:08:45.438Z,0
2023-04-28T04:09:18.976Z,0
2023-04-28T04:09:40.431Z,0
2023-04-28T04:10:04.440Z,0
2023-04-28T04:10:37.442Z,0
2023-04-28T04:11:11.605Z,0
2023-04-28T04:11:41.987Z,0
2023-04-28T04:12:12.049Z,0
2023-04-28T04:12:45.655Z,.32
2023-04-28T04:13:23.004Z,0
2023-04-28T04:13:40.535Z,0
2023-04-28T04:14:04.567Z,0
2023-04-28T04:14:37.582Z,0
2023-04-28T04:15:12.231Z,0
2023-04-28T04:15:41.519Z,0
2023-04-28T04:16:12.431Z,0
2023-04-28T04:16:45.458Z,.32
2023-04-28T04:17:17.868Z,0
2023-04-28T04:17:41.761Z,.32
2023-04-28T04:18:03.458Z,0
2023-04-28T04:18:37.446Z,0
2023-04-28T04:19:09.835Z,0
2023-04-28T04:19:41.535Z,0
2023-04-28T04:20:13.019Z,0
2023-04-28T04:20:45.578Z,0
2023-04-28T04:21:17.514Z,0
2023-04-28T04:21:40.867Z,0
2023-04-28T04:22:03.028Z,0
2023-04-28T04:22:37.514Z,0
2023-04-28T04:23:09.617Z,0
2023-04-28T04:23:42.237Z,0
2023-04-28T04:24:13.566Z,0
2023-04-28T04:24:45.548Z,0
2023-04-28T04:25:17.403Z,0
2023-04-28T04:25:40.168Z,0
2023-04-28T04:26:02.536Z,0
2023-04-28T04:26:37.586Z,0
2023-04-28T04:27:09.627Z,0
2023-04-28T04:27:41.489Z,0
2023-04-28T04:28:14.186Z,0
2023-04-28T04:28:48.057Z,0
2023-04-28T04:29:17.450Z,.32
2023-04-28T04:29:40.360Z,0
2023-04-28T04:30:03.009Z,0
2023-04-28T04:30:37.717Z,0
2023-04-28T04:31:10.026Z,0
2023-04-28T04:31:41.478Z,0
2023-04-28T04:32:14.555Z,0
2023-04-28T04:32:45.440Z,0
2023-04-28T04:33:17.638Z,0
2023-04-28T04:33:40.991Z,0
2023-04-28T04:34:03.294Z,0
2023-04-28T04:34:38.007Z,0
2023-04-28T04:35:09.751Z,0
2023-04-28T04:35:41.361Z,1.44
2023-04-28T04:36:12.005Z,1.12
2023-04-28T04:36:45.672Z,0
2023-04-28T04:37:17.611Z,0
2023-04-28T04:37:41.089Z,0
2023-04-28T04:38:03.644Z,0
2023-04-28T04:38:37.416Z,1.12
2023-04-28T04:39:09.531Z,1.12
2023-04-28T04:39:41.378Z,1.44
2023-04-28T04:40:15.456Z,0
2023-04-28T04:40:45.565Z,0
2023-04-28T04:41:17.396Z,0
2023-04-28T04:41:40.589Z,1.12
2023-04-28T04:42:13.240Z,0
2023-04-28T04:42:37.881Z,0
2023-04-28T04:43:10.040Z,0
2023-04-28T04:43:41.683Z,0
2023-04-28T04:44:14.075Z,0
2023-04-28T04:44:45.447Z,0
2023-04-28T04:45:17.686Z,0
2023-04-28T04:45:40.511Z,0
2023-04-28T04:46:03.490Z,0
2023-04-28T04:46:37.449Z,0
2023-04-28T04:47:09.739Z,0
2023-04-28T04:47:41.429Z,0
2023-04-28T04:48:12.030Z,0
2023-04-28T04:48:45.966Z,0
2023-04-28T04:49:17.621Z,0
2023-04-28T04:49:41.214Z,0
2023-04-28T04:50:03.534Z,0
2023-04-28T04:50:37.484Z,.32
2023-04-28T04:51:09.508Z,0
2023-04-28T04:51:41.468Z,0
2023-04-28T04:52:12.025Z,0
2023-04-28T04:52:47.056Z,.32
2023-04-28T04:53:17.496Z,0
2023-04-28T04:53:40.549Z,0
2023-04-28T04:54:03.119Z,0
2023-04-28T04:54:37.585Z,0
2023-04-28T04:55:09.456Z,0
2023-04-28T04:55:41.649Z,0
2023-04-28T04:56:12.104Z,0
2023-04-28T04:56:45.509Z,0
2023-04-28T04:57:18.149Z,0
2023-04-28T04:57:40.542Z,0
2023-04-28T04:58:02.866Z,0
2023-04-28T04:58:37.589Z,0
2023-04-28T04:59:09.691Z,0
2023-04-28T04:59:42.072Z,0
2023-04-28T05:00:12.307Z,0
2023-04-28T05:00:46.197Z,0
2023-04-28T05:01:18.564Z,0
2023-04-28T05:01:40.499Z,0
2023-04-28T05:02:08.574Z,0
2023-04-28T05:02:37.813Z,0
2023-04-28T05:03:09.725Z,0
2023-04-28T05:03:41.522Z,0
2023-04-28T05:04:12.175Z,0
2023-04-28T05:04:45.788Z,0
2023-04-28T05:05:21.779Z,.64
2023-04-28T05:05:41.052Z,.64
2023-04-28T05:06:03.402Z,0
2023-04-28T05:06:37.442Z,.32
2023-04-28T05:07:09.752Z,.32
2023-04-28T05:07:41.393Z,.32
2023-04-28T05:08:12.083Z,0
2023-04-28T05:08:45.412Z,.32
2023-04-28T05:09:19.995Z,2.09
2023-04-28T05:09:43.689Z,1.44
2023-04-28T05:10:21.336Z,.64
2023-04-28T05:10:44.242Z,.32
2023-04-28T05:11:06.650Z,1.12
2023-04-28T05:11:41.464Z,1.44
2023-04-28T05:12:13.601Z,1.77
2023-04-28T05:12:48.763Z,.32
2023-04-28T05:13:25.325Z,1.12
2023-04-28T05:13:40.613Z,1.44
2023-04-28T05:14:02.930Z,1.44
2023-04-28T05:14:37.861Z,0
2023-04-28T05:15:09.740Z,1.77
2023-04-28T05:16:12.217Z,1.44
2023-04-28T05:16:45.728Z,.32
2023-04-28T05:17:17.587Z,3.54
2023-04-28T05:17:43.282Z,2.09
2023-04-28T05:18:03.297Z,1.44
2023-04-28T05:18:37.461Z,3.21
2023-04-28T05:19:09.495Z,1.44
2023-04-28T05:19:48.845Z,1.12
2023-04-28T05:20:12.957Z,1.44
2023-04-28T05:20:45.333Z,3.21
2023-04-28T05:21:17.497Z,3.21
2023-04-28T05:21:40.208Z,.64
2023-04-28T05:22:02.648Z,2.89
2023-04-28T05:22:37.398Z,1.44
2023-04-28T05:23:09.470Z,1.44
2023-04-28T05:23:41.466Z,1.12
2023-04-28T05:24:12.237Z,1.77
2023-04-28T05:24:45.395Z,1.77
2023-04-28T05:25:17.443Z,.32
2023-04-28T05:25:40.288Z,1.12
2023-04-28T05:26:02.592Z,.32
2023-04-28T05:26:37.546Z,1.12
2023-04-28T05:27:11.901Z,1.44
2023-04-28T05:27:41.521Z,.32
2023-04-28T05:28:13.608Z,0
2023-04-28T05:28:51.131Z,1.77
2023-04-28T05:29:18.576Z,1.44
2023-04-28T05:29:40.718Z,.32
2023-04-28T05:30:08.653Z,0
2023-04-28T05:30:37.461Z,1.12
2023-04-28T05:31:09.443Z,1.12
2023-04-28T05:31:41.789Z,1.12
2023-04-28T05:32:12.111Z,2.09
2023-04-28T05:32:45.514Z,2.09
2023-04-28T05:33:17.524Z,2.09
2023-04-28T05:33:40.561Z,1.77
2023-04-28T05:34:02.945Z,0
2023-04-28T05:34:37.989Z,.32
2023-04-28T05:35:09.752Z,.32
2023-04-28T05:35:41.670Z,.32
2023-04-28T05:36:12.043Z,1.12
2023-04-28T05:36:45.764Z,1.12
2023-04-28T05:37:17.867Z,.64
2023-04-28T05:37:41.804Z,0
2023-04-28T05:38:02.720Z,.64
2023-04-28T05:38:37.574Z,1.77
2023-04-28T05:39:18.047Z,.32
2023-04-28T05:39:41.349Z,.32
2023-04-28T05:40:12.124Z,.32
2023-04-28T05:40:45.554Z,1.77
2023-04-28T05:41:19.037Z,1.44
2023-04-28T05:41:40.792Z,1.77
2023-04-28T05:42:02.868Z,.32
2023-04-28T05:42:37.883Z,1.44
2023-04-28T05:43:10.904Z,1.44
2023-04-28T05:43:41.630Z,1.12
2023-04-28T05:44:12.135Z,1.12
2023-04-28T05:44:45.508Z,1.77
2023-04-28T05:45:17.667Z,1.77
2023-04-28T05:45:40.108Z,1.44
2023-04-28T05:46:02.456Z,1.44
2023-04-28T05:46:37.533Z,1.77
2023-04-28T05:47:09.394Z,1.44
2023-04-28T05:47:41.487Z,.32
2023-04-28T05:48:12.360Z,1.12
2023-04-28T05:48:45.471Z,2.09
2023-04-28T05:49:12.189Z,2.89
2023-04-28T05:49:46.618Z,1.12
2023-04-28T05:50:21.815Z,.64
2023-04-28T05:50:44.430Z,1.77
2023-04-28T05:51:08.968Z,.64
2023-04-28T05:51:41.602Z,1.44
2023-04-28T05:52:12.406Z,1.44
2023-04-28T05:52:45.912Z,.32
2023-04-28T05:53:18.117Z,2.09
2023-04-28T05:53:40.806Z,1.44
2023-04-28T05:54:05.782Z,.64
2023-04-28T05:54:38.268Z,1.12
2023-04-28T05:55:10.332Z,.32
2023-04-28T05:55:41.629Z,.32
2023-04-28T05:56:12.101Z,.32
2023-04-28T05:56:45.325Z,.32
2023-04-28T05:57:17.777Z,.64
2023-04-28T05:57:49.777Z,1.44
2023-04-28T05:58:06.431Z,1.12
2023-04-28T05:58:37.669Z,.32
2023-04-28T05:59:13.326Z,1.77
2023-04-28T05:59:42.273Z,1.44
2023-04-28T06:00:16.127Z,.32
2023-04-28T06:00:46.047Z,1.44
2023-04-28T06:01:18.484Z,2.09
2023-04-28T06:01:41.046Z,1.44
2023-04-28T06:02:03.338Z,2.09
2023-04-28T06:02:39.845Z,.64
2023-04-28T06:03:09.612Z,1.12
2023-04-28T06:03:42.266Z,1.12
2023-04-28T06:04:13.170Z,0
2023-04-28T06:04:45.815Z,.64
2023-04-28T06:05:17.851Z,1.44
2023-04-28T06:05:40.568Z,.32
2023-04-28T06:06:03.566Z,1.44
2023-04-28T06:06:37.678Z,.32
2023-04-28T06:07:09.532Z,2.89
2023-04-28T06:07:41.349Z,.32
2023-04-28T06:08:13.718Z,1.12
2023-04-28T06:08:45.838Z,1.44
2023-04-28T06:09:19.291Z,1.12
2023-04-28T06:09:41.910Z,1.12
2023-04-28T06:10:04.573Z,2.09
2023-04-28T06:10:37.934Z,.32
2023-04-28T06:11:09.493Z,.32
2023-04-28T06:11:44.611Z,.32
2023-04-28T06:12:30.374Z,.32
2023-04-28T06:12:52.175Z,.32
2023-04-28T06:13:15.520Z,.32
2023-04-28T06:13:38.016Z,.32
2023-04-28T06:14:00.661Z,0
2023-04-28T06:14:38.155Z,2.57
2023-04-28T06:15:10.397Z,1.12
2023-04-28T06:15:42.135Z,1.12
2023-04-28T06:16:15.561Z,1.44
2023-04-28T06:16:46.673Z,.64
2023-04-28T06:17:17.476Z,1.44
2023-04-28T06:17:40.278Z,1.44
2023-04-28T06:18:03.128Z,2.09
2023-04-28T06:18:37.962Z,2.89
2023-04-28T06:19:10.427Z,.64
2023-04-28T06:19:44.274Z,1.77
2023-04-28T06:20:35.648Z,1.44
2023-04-28T06:20:57.910Z,1.77
2023-04-28T06:21:33.984Z,1.77
2023-04-28T06:22:05.537Z,2.09
2023-04-28T06:22:37.369Z,2.09
2023-04-28T06:23:09.448Z,1.44
2023-04-28T06:23:41.417Z,2.09
2023-04-28T06:24:12.035Z,1.44
2023-04-28T06:24:45.443Z,1.77
2023-04-28T06:25:12.538Z,.64
2023-04-28T06:25:43.783Z,1.12
2023-04-28T06:26:21.444Z,.32
2023-04-28T06:26:44.075Z,1.12
2023-04-28T06:27:09.097Z,3.54
2023-04-28T06:27:41.344Z,1.12
2023-04-28T06:28:14.100Z,.32
2023-04-28T06:28:47.911Z,1.77
2023-04-28T06:29:18.991Z,1.12
2023-04-28T06:29:41.185Z,2.89
2023-04-28T06:30:04.004Z,1.44
2023-04-28T06:30:38.551Z,1.12
2023-04-28T06:31:10.246Z,1.77
2023-04-28T06:31:41.657Z,1.44
2023-04-28T06:32:12.508Z,1.44
2023-04-28T06:32:46.332Z,2.57
2023-04-28T06:33:18.185Z,3.54
2023-04-28T06:33:40.392Z,1.44
2023-04-28T06:34:03.071Z,1.12
2023-04-28T06:34:38.085Z,2.09
2023-04-28T06:35:10.073Z,3.54
2023-04-28T06:35:41.915Z,2.09
2023-04-28T06:36:12.496Z,2.09
2023-04-28T06:36:45.463Z,4.66
2023-04-28T06:37:17.687Z,3.54
2023-04-28T06:37:40.302Z,2.09
2023-04-28T06:38:03.615Z,1.77
2023-04-28T06:38:39.068Z,3.54
2023-04-28T06:39:09.607Z,4.02
2023-04-28T06:39:41.984Z,4.02
2023-04-28T06:40:12.834Z,4.02
2023-04-28T06:40:45.523Z,1.44
2023-04-28T06:41:17.819Z,1.77
2023-04-28T06:41:40.507Z,1.44
2023-04-28T06:42:02.766Z,2.09
2023-04-28T06:42:37.773Z,1.44
2023-04-28T06:43:12.470Z,3.54
2023-04-28T06:43:35.372Z,1.44
2023-04-28T06:44:12.201Z,1.44
2023-04-28T06:44:45.542Z,1.44
2023-04-28T06:45:17.552Z,1.12
2023-04-28T06:45:43.990Z,3.54
2023-04-28T06:46:02.836Z,2.89
2023-04-28T06:46:37.838Z,3.21
2023-04-28T06:47:09.484Z,2.09
2023-04-28T06:47:41.568Z,2.57
2023-04-28T06:48:12.142Z,3.54
2023-04-28T06:48:45.583Z,3.21
2023-04-28T06:49:17.385Z,3.21
2023-04-28T06:49:40.274Z,2.89
2023-04-28T06:50:02.688Z,3.54
2023-04-28T06:50:37.656Z,4.02
2023-04-28T06:51:32.864Z,1.12
2023-04-28T06:51:55.071Z,2.09
2023-04-28T06:52:33.116Z,3.54
2023-04-28T06:52:53.481Z,2.89
2023-04-28T06:53:16.155Z,4.02
2023-04-28T06:53:39.229Z,2.09
2023-04-28T06:54:02.240Z,2.57
2023-04-28T06:54:37.470Z,3.54
2023-04-28T06:55:09.451Z,3.54
2023-04-28T06:55:41.536Z,4.02